createdAt,value
2023-03-25T00:00:27.262Z,28.70
2023-03-25T00:01:27.277Z,27.60
2023-03-25T00:02:27.436Z,29.40
2023-03-25T00:03:27.340Z,28.70
2023-03-25T00:04:27.280Z,28.40
2023-03-25T00:05:27.211Z,30.00
2023-03-25T00:06:27.235Z,29.60
2023-03-25T00:07:27.186Z,28.70
2023-03-25T00:08:27.186Z,29.70
2023-03-25T00:09:27.162Z,30.10
2023-03-25T00:10:27.177Z,29.40
2023-03-25T00:11:27.422Z,28.40
2023-03-25T00:12:27.182Z,28.50
2023-03-25T00:13:27.124Z,28.10
2023-03-25T00:14:27.113Z,28.80
2023-03-25T00:15:27.101Z,28.70
2023-03-25T00:16:28.337Z,28.20
2023-03-25T00:17:27.153Z,29.30
2023-03-25T00:18:27.403Z,30.10
2023-03-25T00:19:27.111Z,29.50
2023-03-25T00:20:27.170Z,28.70
2023-03-25T00:21:27.093Z,28.20
2023-03-25T00:22:27.024Z,28.70
2023-03-25T00:23:27.031Z,28.20
2023-03-25T00:24:26.984Z,27.30
2023-03-25T00:25:27.378Z,29.50
2023-03-25T00:26:27.135Z,28.70
2023-03-25T00:27:26.990Z,28.80
2023-03-25T00:28:27.395Z,26.80
2023-03-25T00:29:27.013Z,28.90
2023-03-25T00:30:27.070Z,29.50
2023-03-25T00:31:26.914Z,28.10
2023-03-25T00:32:26.985Z,28.40
2023-03-25T00:33:26.905Z,29.20
2023-03-25T00:34:26.892Z,28.60
2023-03-25T00:35:26.963Z,29.50
2023-03-25T00:36:26.939Z,28.50
2023-03-25T00:37:27.277Z,28.00
2023-03-25T00:38:26.943Z,29.20
2023-03-25T00:39:26.825Z,27.70
2023-03-25T00:40:26.809Z,28.00
2023-03-25T00:41:26.816Z,28.00
2023-03-25T00:42:26.933Z,27.90
2023-03-25T00:43:26.791Z,28.50
2023-03-25T00:44:26.744Z,28.80
2023-03-25T00:45:26.820Z,28.00
2023-03-25T00:46:26.824Z,27.90
2023-03-25T00:47:26.790Z,27.70
2023-03-25T00:48:26.700Z,27.50
2023-03-25T00:49:26.706Z,27.40
2023-03-25T00:50:26.712Z,27.40
2023-03-25T00:51:26.708Z,27.90
2023-03-25T00:52:26.782Z,27.90
2023-03-25T00:53:26.669Z,27.80
2023-03-25T00:54:26.643Z,28.70
2023-03-25T00:55:26.658Z,29.10
2023-03-25T00:56:26.623Z,28.70
2023-03-25T00:57:26.615Z,29.40
2023-03-25T00:58:26.710Z,28.20
2023-03-25T00:59:26.762Z,28.60
2023-03-25T01:00:26.579Z,27.60
2023-03-25T01:01:26.703Z,28.80
2023-03-25T01:02:26.691Z,28.10
2023-03-25T01:03:26.681Z,29.80
2023-03-25T01:04:26.659Z,29.40
2023-03-25T01:05:26.605Z,29.30
2023-03-25T01:06:26.536Z,29.60
2023-03-25T01:07:27.600Z,27.90
2023-03-25T01:08:26.510Z,27.90
2023-03-25T01:09:26.531Z,29.10
2023-03-25T01:10:26.533Z,28.80
2023-03-25T01:11:26.467Z,30.10
2023-03-25T01:12:26.466Z,27.50
2023-03-25T01:13:26.419Z,27.70
2023-03-25T01:14:26.461Z,28.60
2023-03-25T01:15:26.417Z,28.40
2023-03-25T01:16:26.461Z,28.50
2023-03-25T01:17:26.440Z,28.70
2023-03-25T01:18:26.475Z,28.30
2023-03-25T01:19:26.413Z,35.20
2023-03-25T01:20:26.390Z,34.90
2023-03-25T01:21:26.372Z,34.70
2023-03-25T01:22:26.688Z,35.10
2023-03-25T01:23:26.350Z,34.90
2023-03-25T01:24:26.306Z,34.90
2023-03-25T01:25:26.311Z,33.50
2023-03-25T01:26:26.291Z,35.40
2023-03-25T01:27:26.330Z,34.30
2023-03-25T01:28:26.271Z,33.40
2023-03-25T01:29:26.337Z,32.70
2023-03-25T01:30:26.245Z,32.90
2023-03-25T01:31:26.262Z,34.30
2023-03-25T01:32:26.278Z,34.60
2023-03-25T01:33:26.214Z,34.30
2023-03-25T01:34:26.224Z,35.20
2023-03-25T01:35:26.212Z,32.90
2023-03-25T01:36:26.261Z,33.80
2023-03-25T01:37:26.168Z,33.90
2023-03-25T01:38:26.196Z,32.90
2023-03-25T01:39:26.339Z,34.90
2023-03-25T01:40:26.148Z,35.60
2023-03-25T01:41:29.228Z,35.80
2023-03-25T01:42:27.102Z,35.60
2023-03-25T01:43:27.243Z,35.10
2023-03-25T01:44:26.144Z,36.50
2023-03-25T01:45:26.190Z,36.00
2023-03-25T01:46:26.097Z,34.10
2023-03-25T01:47:26.103Z,34.60
2023-03-25T01:48:26.038Z,35.40
2023-03-25T01:49:26.045Z,33.90
2023-03-25T01:50:26.030Z,35.70
2023-03-25T01:51:26.001Z,35.40
2023-03-25T01:52:25.986Z,35.00
2023-03-25T01:53:25.977Z,35.80
2023-03-25T01:54:25.980Z,34.90
2023-03-25T01:55:25.981Z,33.40
2023-03-25T01:56:25.963Z,36.90
2023-03-25T01:57:26.107Z,33.60
2023-03-25T01:58:25.942Z,35.70
2023-03-25T01:59:26.036Z,36.40
2023-03-25T02:00:25.950Z,35.60
2023-03-25T02:01:25.920Z,35.30
2023-03-25T02:02:25.929Z,35.30
2023-03-25T02:03:25.943Z,34.80
2023-03-25T02:04:25.874Z,35.20
2023-03-25T02:05:25.851Z,34.60
2023-03-25T02:06:26.018Z,35.60
2023-03-25T02:07:25.872Z,34.80
2023-03-25T02:08:25.863Z,35.90
2023-03-25T02:09:25.828Z,35.80
2023-03-25T02:10:25.859Z,34.20
2023-03-25T02:11:25.788Z,35.20
2023-03-25T02:12:25.800Z,34.10
2023-03-25T02:13:25.792Z,33.90
2023-03-25T02:14:25.788Z,35.30
2023-03-25T02:15:25.769Z,35.70
2023-03-25T02:16:25.784Z,35.00
2023-03-25T02:17:25.817Z,33.50
2023-03-25T02:18:25.724Z,36.30
2023-03-25T02:19:25.738Z,36.60
2023-03-25T02:20:25.769Z,34.30
2023-03-25T02:21:25.683Z,34.60
2023-03-25T02:22:25.698Z,35.10
2023-03-25T02:23:25.689Z,34.90
2023-03-25T02:24:25.690Z,34.20
2023-03-25T02:25:25.663Z,33.90
2023-03-25T02:26:25.667Z,33.60
2023-03-25T02:27:25.610Z,34.00
2023-03-25T02:28:25.679Z,33.90
2023-03-25T02:29:25.598Z,34.80
2023-03-25T02:30:25.640Z,35.10
2023-03-25T02:31:25.713Z,34.80
2023-03-25T02:32:25.597Z,38.10
2023-03-25T02:33:25.567Z,34.90
2023-03-25T02:34:25.540Z,35.80
2023-03-25T02:35:25.573Z,35.00
2023-03-25T02:36:25.532Z,35.00
2023-03-25T02:37:25.522Z,34.40
2023-03-25T02:38:25.522Z,35.70
2023-03-25T02:39:25.481Z,36.00
2023-03-25T02:40:25.483Z,35.30
2023-03-25T02:41:25.490Z,36.20
2023-03-25T02:42:25.479Z,34.90
2023-03-25T02:43:25.432Z,36.10
2023-03-25T02:44:25.435Z,35.40
2023-03-25T02:45:25.486Z,35.90
2023-03-25T02:46:25.529Z,33.40
2023-03-25T02:47:25.418Z,35.50
2023-03-25T02:48:25.415Z,34.40
2023-03-25T02:49:25.408Z,34.30
2023-03-25T02:50:25.380Z,34.50
2023-03-25T02:51:25.378Z,33.90
2023-03-25T02:52:25.354Z,33.80
2023-03-25T02:53:25.324Z,34.20
2023-03-25T02:54:25.378Z,32.80
2023-03-25T02:55:25.324Z,33.70
2023-03-25T02:56:25.363Z,36.20
2023-03-25T02:57:25.298Z,36.10
2023-03-25T02:58:25.307Z,35.50
2023-03-25T02:59:25.276Z,34.90
2023-03-25T03:00:25.267Z,34.10
2023-03-25T03:01:25.310Z,32.00
2023-03-25T03:02:25.363Z,34.40
2023-03-25T03:03:25.248Z,33.90
2023-03-25T03:04:25.240Z,36.10
2023-03-25T03:05:25.222Z,34.50
2023-03-25T03:06:25.226Z,33.70
2023-03-25T03:07:25.205Z,33.80
2023-03-25T03:08:25.190Z,34.60
2023-03-25T03:09:25.179Z,32.50
2023-03-25T03:10:25.185Z,33.80
2023-03-25T03:11:25.150Z,34.20
2023-03-25T03:12:25.161Z,32.00
2023-03-25T03:13:25.141Z,34.80
2023-03-25T03:14:25.131Z,34.60
2023-03-25T03:15:25.161Z,34.80
2023-03-25T03:16:25.109Z,35.80
2023-03-25T03:17:25.176Z,33.10
2023-03-25T03:18:25.184Z,33.90
2023-03-25T03:19:25.056Z,34.10
2023-03-25T03:20:25.069Z,33.80
2023-03-25T03:21:25.699Z,35.10
2023-03-25T03:22:25.018Z,34.40
2023-03-25T03:23:25.099Z,35.00
2023-03-25T03:24:25.043Z,34.00
2023-03-25T03:25:24.996Z,34.50
2023-03-25T03:26:24.989Z,33.00
2023-03-25T03:27:24.963Z,33.80
2023-03-25T03:28:24.991Z,35.20
2023-03-25T03:29:24.974Z,35.20
2023-03-25T03:30:24.941Z,36.00
2023-03-25T03:31:47.507Z,33.90
2023-03-25T03:32:26.026Z,33.90
2023-03-25T03:33:24.926Z,33.10
2023-03-25T03:34:24.902Z,33.10
2023-03-25T03:35:24.917Z,34.00
2023-03-25T03:36:24.903Z,32.60
2023-03-25T03:37:24.865Z,33.20
2023-03-25T03:38:24.862Z,33.40
2023-03-25T03:39:24.846Z,34.20
2023-03-25T03:40:24.896Z,32.20
2023-03-25T03:41:24.840Z,33.90
2023-03-25T03:42:24.822Z,34.30
2023-03-25T03:43:24.819Z,34.10
2023-03-25T03:44:24.788Z,33.50
2023-03-25T03:45:24.819Z,35.00
2023-03-25T03:46:24.813Z,33.60
2023-03-25T03:47:24.797Z,33.20
2023-03-25T03:48:24.758Z,31.20
2023-03-25T03:49:24.790Z,32.90
2023-03-25T03:50:24.726Z,33.90
2023-03-25T03:51:24.742Z,33.90
2023-03-25T03:52:24.716Z,31.00
2023-03-25T03:53:24.680Z,34.30
2023-03-25T03:54:24.807Z,34.20
2023-03-25T03:55:24.686Z,34.90
2023-03-25T03:56:24.698Z,35.70
2023-03-25T03:57:24.628Z,31.80
2023-03-25T03:58:24.733Z,33.80
2023-03-25T03:59:24.644Z,34.30
2023-03-25T04:00:24.619Z,34.50
2023-03-25T04:01:24.593Z,34.30
2023-03-25T04:02:24.751Z,33.60
2023-03-25T04:03:24.975Z,33.60
2023-03-25T04:04:24.562Z,34.90
2023-03-25T04:05:24.580Z,33.20
2023-03-25T04:06:24.668Z,32.40
2023-03-25T04:07:24.578Z,33.50
2023-03-25T04:08:24.531Z,35.90
2023-03-25T04:09:24.538Z,32.40
2023-03-25T04:10:24.511Z,34.50
2023-03-25T04:11:24.498Z,35.60
2023-03-25T04:12:24.488Z,33.30
2023-03-25T04:13:24.500Z,33.60
2023-03-25T04:14:24.472Z,35.50
2023-03-25T04:15:24.438Z,34.50
2023-03-25T04:16:24.530Z,34.30
2023-03-25T04:17:24.497Z,34.30
2023-03-25T04:18:24.409Z,34.60
2023-03-25T04:19:24.444Z,33.90
2023-03-25T04:20:24.407Z,32.30
2023-03-25T04:21:24.388Z,33.90
2023-03-25T04:22:24.383Z,35.10
2023-03-25T04:23:24.386Z,31.80
2023-03-25T04:24:24.376Z,35.40
2023-03-25T04:25:24.347Z,34.20
2023-03-25T04:26:25.050Z,33.80
2023-03-25T04:27:24.296Z,35.00
2023-03-25T04:28:24.349Z,33.30
2023-03-25T04:29:24.297Z,34.60
2023-03-25T04:30:24.327Z,33.50
2023-03-25T04:31:24.289Z,34.60
2023-03-25T04:32:24.297Z,35.90
2023-03-25T04:33:24.255Z,32.60
2023-03-25T04:34:24.303Z,35.00
2023-03-25T04:35:24.265Z,31.90
2023-03-25T04:36:24.294Z,35.20
2023-03-25T04:37:24.209Z,32.80
2023-03-25T04:38:24.216Z,33.60
2023-03-25T04:39:24.188Z,33.40
2023-03-25T04:40:24.204Z,33.90
2023-03-25T04:41:24.230Z,35.20
2023-03-25T04:42:24.188Z,34.80
2023-03-25T04:43:24.147Z,33.60
2023-03-25T04:44:24.154Z,34.50
2023-03-25T04:45:24.124Z,34.10
2023-03-25T04:46:24.194Z,35.00
2023-03-25T04:47:24.146Z,34.50
2023-03-25T04:48:24.128Z,35.00
2023-03-25T04:49:24.065Z,34.40
2023-03-25T04:50:24.108Z,33.20
2023-03-25T04:51:24.095Z,33.10
2023-03-25T04:52:24.095Z,33.70
2023-03-25T04:53:24.039Z,34.20
2023-03-25T04:54:24.042Z,32.00
2023-03-25T04:55:24.020Z,34.40
2023-03-25T04:56:24.001Z,34.70
2023-03-25T04:57:24.000Z,33.40
2023-03-25T04:58:23.998Z,34.50
2023-03-25T04:59:24.029Z,32.40
2023-03-25T05:00:24.158Z,33.20
2023-03-25T05:01:24.027Z,33.20
2023-03-25T05:02:23.998Z,33.70
2023-03-25T05:03:24.026Z,33.90
2023-03-25T05:04:23.953Z,34.60
2023-03-25T05:05:23.942Z,32.70
2023-03-25T05:06:25.388Z,33.10
2023-03-25T05:07:23.898Z,33.10
2023-03-25T05:08:23.923Z,34.50
2023-03-25T05:09:23.900Z,32.60
2023-03-25T05:10:23.913Z,33.00
2023-03-25T05:11:23.857Z,35.10
2023-03-25T05:12:23.906Z,33.30
2023-03-25T05:13:24.047Z,33.80
2023-03-25T05:14:23.819Z,33.40
2023-03-25T05:15:23.835Z,35.00
2023-03-25T05:16:23.794Z,36.10
2023-03-25T05:17:23.857Z,34.20
2023-03-25T05:18:23.771Z,36.10
2023-03-25T05:19:23.750Z,33.70
2023-03-25T05:20:23.772Z,33.30
2023-03-25T05:21:23.758Z,34.30
2023-03-25T05:22:23.711Z,33.40
2023-03-25T05:23:23.780Z,34.90
2023-03-25T05:24:23.684Z,33.50
2023-03-25T05:25:23.904Z,35.10
2023-03-25T05:26:23.711Z,35.50
2023-03-25T05:27:23.702Z,33.50
2023-03-25T05:28:23.680Z,33.40
2023-03-25T05:29:23.658Z,35.00
2023-03-25T05:30:23.677Z,32.30
2023-03-25T05:31:23.648Z,34.50
2023-03-25T05:32:23.673Z,33.60
2023-03-25T05:33:23.624Z,32.90
2023-03-25T05:34:23.588Z,34.00
2023-03-25T05:35:23.594Z,32.00
2023-03-25T05:36:23.562Z,33.20
2023-03-25T05:37:23.580Z,33.50
2023-03-25T05:38:23.567Z,33.70
2023-03-25T05:39:23.745Z,33.30
2023-03-25T05:40:23.517Z,32.90
2023-03-25T05:41:23.514Z,33.40
2023-03-25T05:42:23.477Z,33.40
2023-03-25T05:43:23.491Z,33.80
2023-03-25T05:44:23.477Z,32.50
2023-03-25T05:45:23.460Z,31.00
2023-03-25T05:46:23.535Z,32.30
2023-03-25T05:47:23.879Z,32.80
2023-03-25T05:48:23.427Z,34.00
2023-03-25T05:49:23.447Z,33.90
2023-03-25T05:50:23.431Z,33.20
2023-03-25T05:51:23.388Z,34.20
2023-03-25T05:52:23.383Z,33.00
2023-03-25T05:53:23.366Z,33.50
2023-03-25T05:54:23.392Z,31.70
2023-03-25T05:55:23.359Z,33.50
2023-03-25T05:56:23.375Z,33.00
2023-03-25T05:57:23.326Z,35.00
2023-03-25T05:58:23.349Z,34.30
2023-03-25T05:59:23.332Z,32.90
2023-03-25T06:00:23.529Z,32.60
2023-03-25T06:01:32.679Z,33.70
2023-03-25T06:02:24.339Z,33.30
2023-03-25T06:03:23.370Z,33.60
2023-03-25T06:04:23.355Z,34.60
2023-03-25T06:05:23.266Z,34.90
2023-03-25T06:06:23.283Z,33.80
2023-03-25T06:07:23.273Z,33.30
2023-03-25T06:08:23.254Z,33.60
2023-03-25T06:09:23.207Z,33.80
2023-03-25T06:10:23.212Z,32.60
2023-03-25T06:11:23.214Z,33.60
2023-03-25T06:12:23.192Z,32.40
2023-03-25T06:13:23.152Z,33.10
2023-03-25T06:14:23.155Z,34.30
2023-03-25T06:15:23.149Z,32.60
2023-03-25T06:16:23.228Z,31.70
2023-03-25T06:17:23.116Z,33.30
2023-03-25T06:18:23.130Z,32.00
2023-03-25T06:19:23.102Z,34.90
2023-03-25T06:20:23.100Z,36.10
2023-03-25T06:21:23.098Z,34.80
2023-03-25T06:22:23.054Z,31.80
2023-03-25T06:23:23.067Z,33.00
2023-03-25T06:24:23.037Z,33.30
2023-03-25T06:25:23.031Z,33.00
2023-03-25T06:26:23.022Z,34.30
2023-03-25T06:27:22.995Z,33.00
2023-03-25T06:28:23.032Z,33.90
2023-03-25T06:29:22.976Z,33.00
2023-03-25T06:30:23.003Z,32.80
2023-03-25T06:31:23.021Z,32.50
2023-03-25T06:32:22.984Z,33.30
2023-03-25T06:33:43.057Z,32.20
2023-03-25T06:34:23.960Z,31.50
2023-03-25T06:35:22.958Z,32.00
2023-03-25T06:36:22.944Z,31.60
2023-03-25T06:37:22.959Z,32.10
2023-03-25T06:38:22.895Z,32.00
2023-03-25T06:39:23.098Z,33.00
2023-03-25T06:40:22.873Z,30.00
2023-03-25T06:41:22.867Z,31.80
2023-03-25T06:42:22.868Z,31.80
2023-03-25T06:43:22.894Z,32.10
2023-03-25T06:44:24.206Z,31.70
2023-03-25T06:45:22.843Z,33.30
2023-03-25T06:46:22.835Z,29.70
2023-03-25T06:47:22.844Z,31.00
2023-03-25T06:48:22.833Z,31.70
2023-03-25T06:49:22.772Z,31.90
2023-03-25T06:50:22.816Z,31.70
2023-03-25T06:51:22.772Z,30.50
2023-03-25T06:52:22.744Z,29.30
2023-03-25T06:53:22.799Z,30.00
2023-03-25T06:54:22.751Z,30.00
2023-03-25T06:55:22.745Z,30.80
2023-03-25T06:56:22.728Z,31.40
2023-03-25T06:57:22.705Z,32.00
2023-03-25T06:58:22.670Z,30.70
2023-03-25T06:59:22.673Z,31.50
2023-03-25T07:00:22.683Z,30.80
2023-03-25T07:01:22.742Z,31.80
2023-03-25T07:02:22.694Z,30.20
2023-03-25T07:03:22.636Z,30.90
2023-03-25T07:04:22.622Z,30.90
2023-03-25T07:05:22.696Z,30.80
2023-03-25T07:06:22.606Z,30.80
2023-03-25T07:07:22.614Z,31.50
2023-03-25T07:08:22.590Z,29.40
2023-03-25T07:09:22.547Z,29.60
2023-03-25T07:10:22.603Z,29.20
2023-03-25T07:11:22.642Z,29.80
2023-03-25T07:12:22.539Z,30.50
2023-03-25T07:13:22.558Z,30.00
2023-03-25T07:14:22.500Z,29.40
2023-03-25T07:15:22.520Z,29.10
2023-03-25T07:16:22.552Z,30.70
2023-03-25T07:17:22.538Z,28.50
2023-03-25T07:18:22.466Z,29.10
2023-03-25T07:19:22.456Z,29.90
2023-03-25T07:20:22.476Z,29.10
2023-03-25T07:21:22.446Z,29.20
2023-03-25T07:22:22.428Z,29.50
2023-03-25T07:23:22.428Z,29.00
2023-03-25T07:24:22.404Z,32.10
2023-03-25T07:25:22.423Z,30.10
2023-03-25T07:26:22.371Z,29.40
2023-03-25T07:27:22.393Z,30.00
2023-03-25T07:28:22.371Z,29.60
2023-03-25T07:29:22.348Z,30.20
2023-03-25T07:30:22.346Z,29.90
2023-03-25T07:31:22.552Z,30.40
2023-03-25T07:32:22.352Z,29.80
2023-03-25T07:33:22.310Z,31.00
2023-03-25T07:34:22.311Z,30.60
2023-03-25T07:35:22.300Z,30.40
2023-03-25T07:36:22.271Z,29.30
2023-03-25T07:37:22.262Z,30.50
2023-03-25T07:38:22.278Z,29.90
2023-03-25T07:39:22.267Z,31.60
2023-03-25T07:40:22.223Z,31.90
2023-03-25T07:41:22.223Z,31.40
2023-03-25T07:42:22.241Z,30.40
2023-03-25T07:43:22.188Z,30.60
2023-03-25T07:44:22.181Z,30.90
2023-03-25T07:45:22.185Z,31.20
2023-03-25T07:46:22.181Z,30.00
2023-03-25T07:47:22.141Z,32.50
2023-03-25T07:48:22.136Z,30.20
2023-03-25T07:49:22.126Z,31.50
2023-03-25T07:50:24.421Z,30.50
2023-03-25T07:51:22.139Z,30.30
2023-03-25T07:52:22.099Z,29.90
2023-03-25T07:53:22.106Z,30.20
2023-03-25T07:54:22.092Z,30.80
2023-03-25T07:55:22.221Z,31.20
2023-03-25T07:56:22.175Z,30.80
2023-03-25T07:57:22.032Z,31.00
2023-03-25T07:58:22.030Z,31.60
2023-03-25T07:59:22.016Z,31.10
2023-03-25T08:00:22.097Z,31.20
2023-03-25T08:01:21.992Z,30.50
2023-03-25T08:02:22.044Z,31.10
2023-03-25T08:03:22.083Z,30.90
2023-03-25T08:04:21.939Z,33.20
2023-03-25T08:05:21.940Z,32.00
2023-03-25T08:06:21.943Z,30.40
2023-03-25T08:07:21.976Z,31.60
2023-03-25T08:08:21.916Z,30.30
2023-03-25T08:09:21.924Z,31.20
2023-03-25T08:10:21.887Z,31.30
2023-03-25T08:11:21.900Z,32.30
2023-03-25T08:12:21.905Z,31.80
2023-03-25T08:13:21.867Z,31.90
2023-03-25T08:14:21.867Z,29.70
2023-03-25T08:15:21.896Z,31.40
2023-03-25T08:16:21.899Z,30.90
2023-03-25T08:17:21.814Z,29.30
2023-03-25T08:18:21.817Z,30.20
2023-03-25T08:19:21.818Z,30.50
2023-03-25T08:20:21.779Z,31.00
2023-03-25T08:21:21.789Z,31.20
2023-03-25T08:22:21.885Z,30.40
2023-03-25T08:23:21.750Z,30.20
2023-03-25T08:24:21.733Z,31.00
2023-03-25T08:25:21.768Z,31.90
2023-03-25T08:26:21.706Z,31.00
2023-03-25T08:27:21.718Z,31.30
2023-03-25T08:28:21.828Z,31.20
2023-03-25T08:29:21.671Z,29.40
2023-03-25T08:30:21.703Z,29.80
2023-03-25T08:31:21.676Z,30.00
2023-03-25T08:32:21.638Z,30.10
2023-03-25T08:33:21.637Z,31.70
2023-03-25T08:34:21.624Z,31.20
2023-03-25T08:35:21.901Z,31.70
2023-03-25T08:36:21.622Z,31.50
2023-03-25T08:37:21.632Z,32.00
2023-03-25T08:38:21.649Z,31.10
2023-03-25T08:39:21.569Z,31.30
2023-03-25T08:40:21.560Z,31.10
2023-03-25T08:41:21.568Z,32.50
2023-03-25T08:42:21.572Z,31.20
2023-03-25T08:43:21.666Z,31.80
2023-03-25T08:44:21.505Z,31.00
2023-03-25T08:45:21.536Z,31.70
2023-03-25T08:46:21.529Z,31.20
2023-03-25T08:47:21.488Z,30.50
2023-03-25T08:48:21.478Z,30.10
2023-03-25T08:49:21.478Z,30.40
2023-03-25T08:50:21.652Z,32.10
2023-03-25T08:51:21.497Z,31.90
2023-03-25T08:52:21.413Z,33.10
2023-03-25T08:53:21.437Z,30.80
2023-03-25T08:54:21.428Z,30.80
2023-03-25T08:55:21.426Z,30.00
2023-03-25T08:56:21.673Z,29.90
2023-03-25T08:57:21.385Z,30.00
2023-03-25T08:58:21.359Z,32.20
2023-03-25T08:59:21.349Z,31.30
2023-03-25T09:00:21.429Z,30.70
2023-03-25T09:01:21.356Z,31.50
2023-03-25T09:02:21.319Z,30.20
2023-03-25T09:03:21.306Z,30.80
2023-03-25T09:04:21.321Z,30.80
2023-03-25T09:05:21.376Z,30.00
2023-03-25T09:06:21.294Z,29.10
2023-03-25T09:07:21.296Z,30.60
2023-03-25T09:08:21.591Z,29.90
2023-03-25T09:09:21.362Z,30.00
2023-03-25T09:10:21.360Z,30.00
2023-03-25T09:11:33.986Z,29.70
2023-03-25T09:12:22.197Z,29.80
2023-03-25T09:13:21.201Z,29.70
2023-03-25T09:14:21.306Z,29.80
2023-03-25T09:15:21.204Z,29.80
2023-03-25T09:16:21.182Z,30.20
2023-03-25T09:17:21.310Z,30.40
2023-03-25T09:18:21.133Z,30.00
2023-03-25T09:19:21.168Z,30.90
2023-03-25T09:20:21.110Z,29.20
2023-03-25T09:21:21.131Z,32.10
2023-03-25T09:22:21.219Z,31.60
2023-03-25T09:23:21.088Z,31.20
2023-03-25T09:24:21.077Z,30.00
2023-03-25T09:25:21.142Z,30.20
2023-03-25T09:26:21.810Z,31.10
2023-03-25T09:27:21.075Z,31.80
2023-03-25T09:28:21.045Z,33.00
2023-03-25T09:29:21.166Z,30.80
2023-03-25T09:30:21.050Z,30.00
2023-03-25T09:31:21.068Z,30.80
2023-03-25T09:32:20.968Z,30.10
2023-03-25T09:33:20.996Z,31.10
2023-03-25T09:34:20.989Z,32.30
2023-03-25T09:35:21.694Z,30.50
2023-03-25T09:36:21.704Z,31.20
2023-03-25T09:37:21.280Z,31.70
2023-03-25T09:38:20.905Z,31.20
2023-03-25T09:39:20.946Z,29.60
2023-03-25T09:40:21.233Z,30.40
2023-03-25T09:41:20.879Z,29.10
2023-03-25T09:42:20.943Z,31.20
2023-03-25T09:43:20.869Z,31.40
2023-03-25T09:44:20.849Z,28.80
2023-03-25T09:45:20.874Z,30.00
2023-03-25T09:46:20.862Z,28.00
2023-03-25T09:47:20.814Z,28.80
2023-03-25T09:48:20.847Z,29.20
2023-03-25T09:49:20.811Z,29.80
2023-03-25T09:50:20.785Z,29.00
2023-03-25T09:51:20.788Z,29.70
2023-03-25T09:52:20.776Z,29.60
2023-03-25T09:53:20.756Z,29.80
2023-03-25T09:54:20.753Z,29.20
2023-03-25T09:55:20.872Z,29.30
2023-03-25T09:56:20.730Z,29.80
2023-03-25T09:57:20.754Z,29.20
2023-03-25T09:58:20.725Z,31.00
2023-03-25T09:59:20.702Z,29.50
2023-03-25T10:00:20.695Z,29.90
2023-03-25T10:01:20.751Z,28.90
2023-03-25T10:02:21.780Z,29.80
2023-03-25T10:03:20.739Z,29.10
2023-03-25T10:04:20.643Z,30.80
2023-03-25T10:05:20.630Z,30.50
2023-03-25T10:06:20.646Z,29.70
2023-03-25T10:07:20.788Z,30.10
2023-03-25T10:08:20.674Z,30.50
2023-03-25T10:09:20.617Z,28.20
2023-03-25T10:10:20.576Z,29.90
2023-03-25T10:11:20.580Z,29.80
2023-03-25T10:12:20.570Z,30.50
2023-03-25T10:13:20.553Z,29.60
2023-03-25T10:14:20.571Z,29.30
2023-03-25T10:15:20.550Z,29.30
2023-03-25T10:16:20.583Z,29.00
2023-03-25T10:17:20.554Z,29.40
2023-03-25T10:18:20.506Z,29.10
2023-03-25T10:19:20.470Z,29.20
2023-03-25T10:20:20.500Z,30.10
2023-03-25T10:21:20.480Z,30.10
2023-03-25T10:22:20.452Z,30.10
2023-03-25T10:23:20.550Z,29.50
2023-03-25T10:24:20.452Z,29.60
2023-03-25T10:25:20.510Z,30.10
2023-03-25T10:26:20.451Z,30.20
2023-03-25T10:27:20.399Z,31.10
2023-03-25T10:28:20.428Z,30.50
2023-03-25T10:29:20.388Z,29.40
2023-03-25T10:30:20.518Z,28.20
2023-03-25T10:31:20.343Z,29.20
2023-03-25T10:32:20.371Z,29.30
2023-03-25T10:33:20.362Z,30.40
2023-03-25T10:34:20.326Z,31.10
2023-03-25T10:35:20.346Z,30.00
2023-03-25T10:36:20.327Z,31.10
2023-03-25T10:37:20.289Z,30.90
2023-03-25T10:38:20.311Z,28.80
2023-03-25T10:39:20.254Z,28.70
2023-03-25T10:40:21.740Z,29.20
2023-03-25T10:41:20.235Z,29.30
2023-03-25T10:42:20.238Z,29.60
2023-03-25T10:43:20.288Z,30.90
2023-03-25T10:44:20.193Z,31.90
2023-03-25T10:45:20.185Z,29.80
2023-03-25T10:46:20.243Z,29.40
2023-03-25T10:47:20.150Z,29.00
2023-03-25T10:48:20.161Z,27.70
2023-03-25T10:49:20.181Z,28.00
2023-03-25T10:50:20.238Z,29.20
2023-03-25T10:51:20.244Z,29.40
2023-03-25T10:52:20.116Z,29.00
2023-03-25T10:53:20.132Z,29.40
2023-03-25T10:54:20.257Z,29.50
2023-03-25T10:55:20.124Z,29.50
2023-03-25T10:56:20.093Z,29.90
2023-03-25T10:57:20.070Z,29.70
2023-03-25T10:58:20.119Z,28.50
2023-03-25T10:59:20.041Z,29.90
2023-03-25T11:00:20.119Z,30.30
2023-03-25T11:01:20.277Z,28.20
2023-03-25T11:02:20.067Z,29.40
2023-03-25T11:03:20.024Z,28.40
2023-03-25T11:04:20.673Z,28.60
2023-03-25T11:05:20.000Z,29.10
2023-03-25T11:06:19.978Z,29.10
2023-03-25T11:07:20.102Z,29.60
2023-03-25T11:08:24.444Z,29.80
2023-03-25T11:09:20.977Z,28.80
2023-03-25T11:10:19.966Z,27.80
2023-03-25T11:11:19.905Z,29.40
2023-03-25T11:12:25.178Z,29.10
2023-03-25T11:13:20.944Z,30.30
2023-03-25T11:14:19.874Z,31.20
2023-03-25T11:15:19.968Z,32.20
2023-03-25T11:16:19.880Z,30.50
2023-03-25T11:17:19.866Z,30.20
2023-03-25T11:18:19.880Z,30.90
2023-03-25T11:19:19.845Z,32.10
2023-03-25T11:20:19.858Z,32.80
2023-03-25T11:21:19.869Z,32.60
2023-03-25T11:22:19.804Z,34.10
2023-03-25T11:23:19.943Z,32.50
2023-03-25T11:24:19.798Z,34.40
2023-03-25T11:25:19.838Z,33.70
2023-03-25T11:26:19.794Z,32.80
2023-03-25T11:27:19.729Z,33.30
2023-03-25T11:28:19.714Z,35.30
2023-03-25T11:29:20.011Z,35.10
2023-03-25T11:30:19.747Z,33.30
2023-03-25T11:31:19.734Z,34.60
2023-03-25T11:32:19.767Z,33.60
2023-03-25T11:33:19.692Z,33.00
2023-03-25T11:34:19.726Z,35.50
2023-03-25T11:35:19.667Z,35.10
2023-03-25T11:36:19.631Z,34.10
2023-03-25T11:37:19.775Z,33.90
2023-03-25T11:38:19.613Z,34.90
2023-03-25T11:39:19.612Z,34.60
2023-03-25T11:40:19.676Z,33.10
2023-03-25T11:41:19.601Z,33.30
2023-03-25T11:42:19.613Z,36.40
2023-03-25T11:43:19.570Z,34.30
2023-03-25T11:44:19.546Z,34.30
2023-03-25T11:45:19.563Z,34.50
2023-03-25T11:46:19.576Z,34.40
2023-03-25T11:47:19.525Z,34.50
2023-03-25T11:48:19.514Z,33.90
2023-03-25T11:49:19.562Z,35.20
2023-03-25T11:50:19.525Z,33.80
2023-03-25T11:51:19.523Z,34.20
2023-03-25T11:52:19.475Z,30.20
2023-03-25T11:53:19.470Z,32.50
2023-03-25T11:54:19.553Z,32.30
2023-03-25T11:55:19.423Z,31.50
2023-03-25T11:56:19.478Z,30.10
2023-03-25T11:57:19.397Z,29.90
2023-03-25T11:58:19.479Z,30.50
2023-03-25T11:59:19.439Z,32.60
2023-03-25T12:00:19.435Z,32.50
2023-03-25T12:01:19.660Z,32.50
2023-03-25T12:02:19.407Z,32.40
2023-03-25T12:03:20.724Z,32.40
2023-03-25T12:04:19.472Z,31.70
2023-03-25T12:05:19.313Z,29.80
2023-03-25T12:06:19.369Z,30.00
2023-03-25T12:07:19.317Z,31.00
2023-03-25T12:08:19.362Z,32.90
2023-03-25T12:09:19.302Z,32.30
2023-03-25T12:10:19.353Z,32.40
2023-03-25T12:11:19.275Z,31.10
2023-03-25T12:12:19.392Z,32.10
2023-03-25T12:13:19.353Z,31.40
2023-03-25T12:14:19.244Z,32.40
2023-03-25T12:15:19.233Z,33.80
2023-03-25T12:16:19.283Z,33.90
2023-03-25T12:17:19.211Z,33.60
2023-03-25T12:18:19.186Z,34.30
2023-03-25T12:19:19.208Z,33.00
2023-03-25T12:20:19.150Z,33.80
2023-03-25T12:21:19.291Z,33.70
2023-03-25T12:22:19.851Z,34.70
2023-03-25T12:23:19.256Z,33.20
2023-03-25T12:24:19.194Z,35.60
2023-03-25T12:25:19.136Z,33.60
2023-03-25T12:26:19.204Z,34.30
2023-03-25T12:27:19.121Z,34.00
2023-03-25T12:28:19.280Z,34.00
2023-03-25T12:29:19.198Z,33.30
2023-03-25T12:30:19.891Z,32.80
2023-03-25T12:31:19.238Z,35.90
2023-03-25T12:32:19.063Z,33.00
2023-03-25T12:33:19.013Z,34.00
2023-03-25T12:34:19.039Z,35.50
2023-03-25T12:35:19.006Z,34.30
2023-03-25T12:36:19.696Z,34.20
2023-03-25T12:37:19.694Z,34.00
2023-03-25T12:38:19.034Z,33.10
2023-03-25T12:39:19.780Z,34.30
2023-03-25T12:40:18.933Z,34.50
2023-03-25T12:41:19.289Z,35.40
2023-03-25T12:42:18.939Z,36.10
2023-03-25T12:43:18.957Z,36.60
2023-03-25T12:44:18.935Z,36.30
2023-03-25T12:45:18.880Z,35.80
2023-03-25T12:46:18.905Z,32.40
2023-03-25T12:47:19.595Z,34.50
2023-03-25T12:48:18.913Z,34.30
2023-03-25T12:49:18.842Z,32.30
2023-03-25T12:50:18.848Z,36.20
2023-03-25T12:51:18.817Z,36.50
2023-03-25T12:52:18.830Z,36.00